Weather observations for the past three days for
Port Lavaca - Calhoun County Airport
Imperial (Metric)
Date Time (cdt) Wind (mph) Vis. (mi.) Weather Sky Cond. Temperature (ºF) Relative Humidity Wind Chill (°F) Heat Index (°F) Pressure Precipitation (in)
Air Dwpt 6 hour altimeter (in) sea level (mb) 1 hr 3 hr 6 hr
Max. Min.
05 03:55 S 3 10.00 Overcast BKN140 OVC190 81.3 80.4 97% 91 29.86 0.0
05 03:35 SE 5 10.00 Mostly Cloudy BKN140 81.5 80.6 97% 92 29.86 0.0
05 03:15 SE 5 10.00 Mostly Cloudy SCT140 BKN160 81.9 80.4 95% 93 29.87 0.0
05 02:55 SE 6 10.00 Overcast OVC160 82.2 80.4 94% 94 29.87 0.0
05 02:35 SE 5 10.00 Overcast OVC160 82.2 80.2 94% 93 29.87 0.0
05 02:15 SE 5 10.00 Overcast OVC160 82.4 80.4 94% 94 29.88 0.0
05 01:55 S 6 9.00 Overcast OVC160 82.8 80.8 94% 95 29.89 0.0
05 01:35 S 7 9.00 Overcast OVC160 82.8 80.6 93% 95 29.89 0.0
05 01:15 SE 6 8.00 Overcast OVC160 82.6 80.6 94% 95 29.89 0.0
05 00:55 S 7 8.00 Overcast OVC160 82.8 80.4 88.2 82.6 93% 95 29.89 0.0
05 00:35 SE 6 9.00 Overcast OVC160 82.8 80.1 92% 94 29.89 0.0
05 00:15 S 6 8.00 Overcast OVC160 82.8 80.2 92% 95 29.9 0.0
04 23:55 SE 8 9.00 Overcast OVC150 83.3 80.1 90% 96 29.9 0.0
04 23:35 SE 8 9.00 Overcast OVC150 83.5 79.7 88% 96 29.9 0.0
04 23:15 SE 9 9.00 Mostly Cloudy BKN150 83.5 79.5 88% 95 29.9 0.0
04 22:55 SE 10 9.00 Mostly Cloudy BKN150 83.8 79.7 87% 96 29.9 0.0
04 22:35 SE 9 9.00 Mostly Cloudy BKN150 83.8 79.7 87% 96 29.91 0.0
04 22:15 SE 12 10.00 A Few Clouds FEW160 83.8 79.2 86% 96 29.9 0.0
04 21:55 SE 9 9.00 Mostly Cloudy BKN160 84 78.8 84% 96 29.89 0.0
04 21:35 SE 9 9.00 Mostly Cloudy BKN160 84 79 85% 96 29.89 0.0
04 21:15 SE 9 10.00 Mostly Cloudy BKN150 84.2 79.2 85% 97 29.89 0.0
04 20:55 SE 10 10.00 Mostly Cloudy BKN150 84.6 79.7 85% 98 29.88 0.0
04 20:35 SE 13 10.00 A Few Clouds FEW140 84.7 80.1 86% 99 29.87 0.0
04 20:15 SE 12 10.00 Fair CLR 85.1 79.7 84% 99 29.87 0.0
04 19:55 SE 14 10.00 Fair CLR 85.8 79.5 82% 100 29.86 0.0
04 19:35 SE 13 9.00 Fair CLR 86.4 79.9 81% 102 29.86 0.0
04 19:15 SE 16 10.00 Fair CLR 87.4 80.2 79% 104 29.86 0.0
04 18:55 SE 15 10.00 Fair CLR 88 80.2 95.9 87.8 78% 105 29.85 0.0
04 18:35 SE 17 10.00 Fair CLR 88.5 80.4 77% 106 29.85 0.0
04 18:15 SE 17 10.00 Fair CLR 88.9 79.9 75% 106 29.85 0.0
04 17:35 SE 16 G 22 10.00 Fair CLR 91.4 80.2 70% 110 29.85 0.0
04 17:15 E 17 10.00 Fair CLR 90.5 78.6 68% 106 29.86 0.0
04 16:55 SE 18 10.00 Fair CLR 92.5 79.2 65% 110 29.86 0.0
04 16:35 SE 18 G 24 10.00 Fair CLR 93.2 78.3 62% 109 29.86 0.0
04 16:15 E 17 10.00 Fair CLR 93.6 78.3 61% 110 29.87 0.0
04 15:55 SE 16 G 21 10.00 Fair CLR 94.1 77.5 59% 109 29.87 0.0
04 15:35 SE 18 10.00 Fair CLR 93.2 77.4 60% 108 29.87 0.0
04 15:15 SE 15 G 23 10.00 Fair CLR 94.3 77.5 58% 110 29.88 0.0
04 14:55 SE 16 10.00 Fair CLR 94.8 76.5 55% 109 29.87 0.0
04 14:35 E 18 10.00 A Few Clouds FEW380 95.2 77.5 57% 111 29.87 0.0
04 14:15 SE 18 10.00 Partly Cloudy SCT055 94.6 77.9 58% 111 29.88 0.0
04 13:55 E 8 10.00 Mostly Cloudy SCT047 BKN060 93.6 75.4 56% 106 29.89 0.0
04 13:35 SE 13 10.00 Partly Cloudy SCT047 92.1 76.3 60% 105 29.9 0.0
04 13:15 E 12 10.00 Mostly Cloudy FEW039 SCT055 SCT075 BKN170 93.7 78.4 61% 110 29.9 0.0
04 12:55 SE 14 10.00 Mostly Cloudy SCT038 BKN050 BKN060 BKN075 93.9 79 94.1 77.9 62% 112 29.91 0.0
04 12:35 SE 8 10.00 Partly Cloudy SCT038 91.9 77.7 63% 107 29.92 0.0
04 12:15 S 8 10.00 Partly Cloudy SCT042 93.4 76.1 57% 106 29.92 0.0
04 11:55 S 7 10.00 A Few Clouds FEW042 93.4 75.7 57% 106 29.92 0.0
04 11:35 S 10 10.00 A Few Clouds FEW037 91 76.6 63% 104 29.93 0.0
04 11:15 SW 9 10.00 A Few Clouds FEW036 90.3 77.5 66% 104 29.93 0.0
04 10:55 S 9 10.00 Partly Cloudy SCT031 90.1 77.2 66% 104 29.93 0.0
04 10:35 SW 7 9.00 A Few Clouds FEW027 88.7 78.3 71% 103 29.93 0.0
04 10:15 S 5 10.00 A Few Clouds FEW024 87.3 79.7 78% 103 29.92 0.0
04 09:55 S 5 10.00 Partly Cloudy SCT025 SCT031 85.5 80.1 84% 100 29.92 0.0
04 09:35 SE 5 10.00 Fair CLR 84.9 80.4 86% 100 29.92 0.0
04 09:15 Calm 9.00 Fair CLR 83.8 80.6 90% 98 29.92 0.0
04 08:55 Calm 9.00 Fair CLR 82.9 80.1 91% 95 29.91 0.0
04 08:15 Calm 10.00 Fair CLR 81.5 78.8 92% 90 29.9 0.0
04 07:55 Calm 9.00 Partly Cloudy SCT020 79.5 78.8 98% 85 29.89 0.0
04 07:35 Calm 7.00 Partly Cloudy SCT019 79.2 77.9 96% 84 29.89 0.0
04 07:15 Calm 6.00 Fog/Mist CLR 78.3 77 96% 81 29.89 0.0
04 06:55 Calm 8.00 A Few Clouds FEW180 78.1 75.4 82.9 77.7 91% 81 29.88 0.0
04 06:35 Calm 8.00 Fair CLR 78.1 74.5 89% 81 29.88 0.0
04 06:15 Calm 5.00 Fog/Mist FEW160 78.4 75.6 91% 82 29.88 0.0
04 05:55 Calm 7.00 A Few Clouds FEW160 79 77.2 94% 83 29.88 0.0
04 05:35 Calm 10.00 Partly Cloudy SCT160 79.9 78.6 96% 86 29.87 0.0
04 05:15 Calm 9.00 Fair CLR 79.9 79 97% 86 29.87 0.0
04 04:55 Calm 10.00 Fair CLR 80.1 78.8 96% 87 29.87 0.0
04 04:35 S 3 10.00 Fair CLR 80.6 79.2 95% 88 29.87 0.0
04 04:15 Calm 10.00 Thunderstorm in Vicinity CLR 80.2 78.6 95% 87 29.87 0.0
04 03:55 S 5 10.00 Mostly Cloudy BKN180 81 79.2 94% 89 29.87 0.0
04 03:35 S 5 10.00 Thunderstorm in Vicinity OVC170 81.5 79.2 93% 91 29.86 0.0
04 03:15 S 3 10.00 Overcast BKN170 OVC190 81.9 79.2 92% 91 29.86 0.0
04 02:55 S 5 10.00 Mostly Cloudy BKN170 BKN190 82 79.3 92% 92 29.87 0.0
04 02:35 S 6 10.00 Overcast OVC180 82.6 79.7 91% 94 29.87 0.0
04 02:15 S 7 10.00 Overcast FEW160 OVC190 82.6 80.1 92% 94 29.87 0.0
04 01:55 SE 7 10.00 Overcast OVC180 82.9 80.1 91% 95 29.88 0.0
04 01:35 SE 7 10.00 Overcast FEW023 OVC180 82.8 80.2 92% 95 29.88 0.0
04 01:15 SE 6 10.00 Mostly Cloudy FEW024 SCT160 BKN190 82.8 80.2 92% 95 29.88 0.0
04 00:55 SE 7 10.00 Mostly Cloudy BKN190 82 79.9 87.8 82 93% 93 29.88 0.0
04 00:35 S 5 10.00 Overcast OVC190 82.4 79.9 92% 93 29.88 0.0
04 00:15 SE 6 10.00 Overcast BKN180 OVC310 82.9 79.9 91% 95 29.88 0.0
03 23:55 SE 7 10.00 Mostly Cloudy BKN310 83.5 79.9 89% 96 29.88 0.0
03 23:35 SE 8 10.00 Overcast OVC310 83.7 80.1 89% 96 29.88 0.0
03 23:15 SE 8 10.00 Overcast OVC310 83.8 80.1 88% 97 29.88 0.0
03 22:55 SE 8 10.00 Partly Cloudy SCT300 84 79.7 87% 97 29.88 0.0
03 22:35 SE 10 10.00 Fair CLR 84.2 79.9 87% 97 29.88 0.0
03 22:15 SE 10 10.00 Fair CLR 84.6 79.9 86% 98 29.88 0.0
03 21:55 SE 9 10.00 A Few Clouds FEW320 84.6 79.7 85% 98 29.88 0.0
03 21:35 SE 12 10.00 A Few Clouds FEW320 85.1 79.9 84% 99 29.88 0.0
03 21:15 SE 12 10.00 Partly Cloudy SCT320 85.1 79.7 84% 99 29.87 0.0
03 20:55 SE 12 10.00 Fair CLR 85.3 79.5 83% 99 29.87 0.0
03 20:35 SE 13 10.00 Fair CLR 85.5 79.3 82% 99 29.86 0.0
03 20:15 SE 12 10.00 A Few Clouds FEW025 85.8 79.3 81% 100 29.86 0.0
03 19:55 SE 13 10.00 A Few Clouds FEW026 86.5 79.5 80% 101 29.85 0.0
03 19:35 SE 13 9.00 Fair CLR 86.7 78.6 77% 100 29.85 0.0
03 19:15 SE 15 G 22 9.00 Fair CLR 87.1 78.3 75% 100 29.85 0.0
03 18:55 SE 16 9.00 Fair CLR 88 77.4 97.3 88 71% 101 29.85 0.0
03 18:35 SE 16 G 23 10.00 Fair CLR 88.3 79 74% 103 29.85 0.0
03 18:15 SE 20 10.00 Fair CLR 89.1 79.2 73% 105 29.85 0.0
03 17:55 SE 18 10.00 Fair CLR 90.7 78.3 67% 106 29.84 0.0
03 17:35 E 14 10.00 Fair CLR 91.9 77.7 63% 107 29.84 0.0
03 17:15 E 17 G 23 10.00 Fair CLR 92.5 77.9 63% 108 29.84 0.0
03 16:55 E 16 10.00 Fair CLR 92.5 77.5 62% 107 29.84 0.0
03 16:35 SE 18 10.00 Fair CLR 93.9 77 58% 108 29.85 0.0
03 16:15 SE 16 10.00 A Few Clouds FEW044 94.5 77.2 57% 109 29.84 0.0
03 15:55 E 17 10.00 A Few Clouds FEW050 95.7 76.1 53% 109 29.84 0.0
03 15:35 SE 18 G 24 10.00 Partly Cloudy SCT050 95.7 77 55% 111 29.85 0.0
03 15:15 SE 16 G 21 10.00 A Few Clouds FEW050 96.4 73.8 48% 107 29.85 0.0
03 14:55 S 10 10.00 Partly Cloudy SCT050 97.3 73.8 47% 108 29.86 0.0
03 14:35 S 13 G 18 10.00 Partly Cloudy SCT050 97 74.1 48% 108 29.86 0.0
03 14:15 SE 10 G 18 10.00 Fair CLR 96.1 73.6 48% 107 29.86 0.0
03 13:55 SW 13 10.00 Fair CLR 95.7 70 43% 102 29.88 0.0
03 13:35 S 12 G 17 10.00 Fair CLR 96.3 71.2 44% 104 29.88 0.0
03 13:15 S 15 10.00 Fair CLR 96.4 71.4 44% 105 29.89 0.0
03 13:10 S 8 10.00 Fair CLR 96.8 73.4 47% 107 29.89 0.0
03 12:55 SW 12 G 20 10.00 A Few Clouds FEW046 95.4 73.8 95.9 81.9 50% 106 29.9 0.0
03 12:35 S 13 10.00 Fair CLR 95 74.5 52% 106 29.9 0.0
03 12:15 S 13 10.00 Fair CLR 94.8 74.8 52% 107 29.9 0.0
03 11:55 S 14 10.00 Fair CLR 94.5 75.2 54% 107 29.91 0.0
03 11:35 S 13 10.00 Fair CLR 93.9 75.7 56% 107 29.91 0.0
03 11:15 S 14 10.00 Fair CLR 93 76.6 59% 107 29.92 0.0
03 10:55 S 13 10.00 A Few Clouds FEW032 92.1 77.7 63% 107 29.92 0.0
03 10:35 S 14 10.00 A Few Clouds FEW030 91.2 78.3 66% 107 29.92 0.0
03 10:15 S 14 10.00 Fair CLR 89.8 79.3 71% 106 29.92 0.0
03 09:55 S 13 10.00 Fair CLR 88.2 79.5 76% 104 29.92 0.0
03 09:35 S 12 10.00 A Few Clouds FEW021 87.1 80.1 80% 103 29.92 0.0
03 09:15 S 12 10.00 Partly Cloudy SCT020 87.4 80.8 81% 105 29.92 0.0
03 08:35 SW 9 10.00 Fair CLR 85.3 81.7 89% 102 29.92 0.0
03 08:15 SW 8 10.00 Fair CLR 84 81.7 93% 99 29.92 0.0
03 07:55 SW 7 10.00 Fair CLR 82.4 81.1 96% 95 29.91 0.0
03 07:35 S 7 10.00 Fair CLR 82.2 81 96% 94 29.9 0.0
03 07:15 SW 7 10.00 Fair CLR 81.9 81 97% 93 29.9 0.0
03 06:55 SW 5 10.00 Fair CLR 81.9 81 83.5 81.9 97% 93 29.9 0.0
03 06:35 S 7 9.00 Fair CLR 82.2 81.1 97% 94 29.89 0.0
03 06:15 S 7 10.00 Fair CLR 82.8 81.1 95% 96 29.89 0.0
03 05:55 SW 7 9.00 Fair CLR 83.1 81.1 94% 97 29.89 0.0
03 05:35 S 7 10.00 A Few Clouds FEW018 83.3 81.1 93% 97 29.89 0.0
03 05:15 S 7 10.00 Partly Cloudy SCT019 83.3 80.8 92% 97 29.9 0.0
03 04:55 S 7 10.00 Partly Cloudy SCT021 83.1 81 93% 96 29.89 0.0
03 04:35 S 6 9.00 Partly Cloudy SCT020 SCT028 82.6 81.1 95% 95 29.9 0.0
03 04:15 S 6 9.00 Fair CLR 82.6 81 95% 95 29.9 0.0
03 03:55 S 8 9.00 Fair CLR 82.4 80.8 95% 94 29.89 0.0
03 03:35 S 8 10.00 Fair CLR 82.6 80.6 94% 95 29.89 0.0
03 03:15 S 7 10.00 Fair CLR 82 80.2 94% 93 29.89 0.0
03 02:55 S 7 9.00 Fair CLR 82.2 80.2 94% 93 29.89 0.0
03 02:35 S 6 10.00 Fair CLR 82.4 80.2 93% 94 29.9 0.0
03 02:15 S 7 10.00 Fair CLR 82.6 80.1 92% 94 29.9 0.0
03 01:55 S 7 10.00 Fair CLR 82.6 80.2 93% 94 29.9 0.0
03 01:35 S 6 10.00 A Few Clouds FEW022 82.8 80.2 92% 95 29.9 0.0
03 01:15 S 9 10.00 Partly Cloudy SCT022 82.9 80.4 92% 95 29.91 0.0
03 00:55 S 8 10.00 A Few Clouds FEW021 82.8 80.4 88.9 82.8 93% 95 29.91 0.0
03 00:35 S 7 10.00 Fair CLR 82.9 80.4 92% 95 29.91 0.0
03 00:15 S 8 10.00 Fair CLR 83.1 80.6 92% 96 29.91 0.0
02 23:55 SE 9 10.00 Fair CLR 82.9 80.4 92% 95 29.91 0.0
02 23:35 S 7 10.00 Fair CLR 82.8 79.9 91% 94 29.91 0.0
02 23:15 S 8 10.00 Fair CLR 83.5 80.1 89% 96 29.91 0.0
02 22:55 S 9 10.00 Fair CLR 83.5 79.9 89% 96 29.91 0.0
02 22:35 S 10 10.00 Fair CLR 84 80.1 88% 97 29.91 0.0
02 22:15 S 10 9.00 Fair CLR 84 80.1 88% 97 29.9 0.0
02 21:55 SE 10 9.00 Fair CLR 84.2 80.1 87% 98 29.89 0.0
02 21:35 S 12 9.00 Fair CLR 84.2 80.1 87% 98 29.88 0.0
02 21:15 S 10 9.00 Fair CLR 84.2 79.9 87% 97 29.88 0.0
02 20:55 SE 12 9.00 Fair CLR 84.6 80.1 86% 98 29.87 0.0
02 20:35 S 10 9.00 Fair CLR 84.9 79.9 85% 99 29.87 0.0
02 20:15 SE 14 9.00 Fair CLR 85.5 79.9 83% 100 29.86 0.0
02 19:55 S 15 8.00 Fair CLR 86.2 79.3 80% 100 29.86 0.0
02 19:35 S 14 8.00 Fair CLR 86.9 79 77% 101 29.86 0.0
02 19:15 S 18 10.00 Fair CLR 88.2 78.8 74% 103 29.86 0.0
02 18:55 S 13 G 21 10.00 Overcast OVC100 90 78.1 97.5 90 68% 105 30.13 0.0
02 18:50 SE 16 G 23 10.00 Fair CLR 90 78.1 68% 105 29.86 0.0
02 18:35 S 17 G 22 10.00 Fair CLR 90.5 77.4 65% 104 29.86 0.0
02 18:15 S 14 G 20 10.00 Fair CLR 91.9 76.3 60% 105 29.86 0.0
02 17:55 S 14 10.00 Fair CLR 93.4 74.1 54% 104 29.85 0.0
02 17:35 S 13 G 20 9.00 Fair CLR 95 73.4 50% 105 29.85 0.0
02 17:15 S 13 G 22 10.00 Fair CLR 95.2 71.8 47% 103 29.85 0.0
02 16:55 S 12 10.00 Fair CLR 96.6 71.8 45% 105 29.86 0.0
02 16:15 S 14 10.00 Fair CLR 96.3 69.4 42% 102 29.86 0.0
02 15:55 S 13 10.00 Fair CLR 96.4 70.5 43% 104 29.87 0.0
02 15:35 S 12 G 21 10.00 Fair CLR 96.3 72.9 47% 106 29.88 0.0
02 15:15 S 15 10.00 Fair CLR 97.2 74.1 48% 109 29.88 0.0
02 14:55 S 12 10.00 Fair CLR 96.6 75.4 51% 110 29.89 0.0
02 14:35 S 12 G 18 10.00 Fair CLR 96.4 76.3 52% 111 29.9 0.0
02 14:15 S 13 10.00 A Few Clouds FEW046 96.4 76.8 53% 111 29.9 0.0
02 13:55 SW 9 9.00 Fair CLR 96.1 75 51% 108 29.91 0.0
02 13:35 S 12 G 17 9.00 A Few Clouds FEW330 96.8 76.5 52% 111 29.92 0.0
02 13:15 SW 8 G 18 10.00 A Few Clouds FEW043 95.2 76.5 55% 109 29.92 0.0
02 12:55 SW 7 G 16 10.00 A Few Clouds FEW040 94.5 77 95.4 81.3 57% 109 29.94 0.0
02 12:35 S 10 9.00 Partly Cloudy SCT039 95 77.5 57% 111 29.95 0.0
02 12:15 SW 14 G 17 9.00 Partly Cloudy SCT038 94.5 77.9 59% 111 29.96 0.0
02 11:55 SW 8 G 16 10.00 A Few Clouds FEW036 92.7 78.3 63% 109 29.97 0.0
02 11:35 Vrbl 7 10.00 A Few Clouds FEW033 92.7 78.1 63% 108 29.97 0.0
02 11:15 S 16 10.00 Mostly Cloudy BKN032 92.1 78.3 64% 108 29.97 0.0
02 10:55 S 13 10.00 Mostly Cloudy BKN031 91.4 78.6 66% 107 29.97 0.0
02 10:35 SW 14 G 21 10.00 Partly Cloudy SCT028 90.5 78.3 67% 106 29.97 0.0
02 10:15 S 13 10.00 A Few Clouds FEW028 89.6 78.8 71% 105 29.96 0.0
02 09:55 SW 15 10.00 A Few Clouds FEW022 87.1 78.8 76% 101 29.96 0.0
02 09:35 SW 16 10.00 A Few Clouds FEW022 87.3 79.9 79% 103 29.96 0.0
02 09:15 SW 13 10.00 Fair CLR 85.8 80.2 83% 101 29.96 0.0
02 08:55 SW 9 10.00 A Few Clouds FEW080 84.6 80.2 87% 99 29.96 0.0
02 08:35 SW 7 10.00 A Few Clouds FEW080 83.7 80.1 89% 96 29.96 0.0
02 08:15 SW 5 10.00 Fair CLR 82.6 80.1 92% 94 29.96 0.0
02 07:55 Calm 10.00 Fair CLR 81.5 79.9 95% 91 29.95 0.0
02 07:35 SW 6 10.00 A Few Clouds FEW020 81.5 79.5 94% 91 29.94 0.0
02 07:15 SW 7 10.00 Fair CLR 81.7 79.7 94% 92 29.94 0.0
02 06:55 SW 9 10.00 Fair CLR 82 79.9 83.1 81.7 93% 93 29.93 0.0
02 06:35 SW 13 10.00 A Few Clouds FEW080 82.2 80.1 93% 93 29.93 0.0
02 06:15 SW 9 10.00 Mostly Cloudy BKN080 82 80.1 94% 93 29.93 0.0
02 05:55 SW 8 10.00 Fair CLR 81.7 80.1 95% 92 29.93 0.0
02 05:35 SW 10 10.00 Fair CLR 81.7 79.9 94% 92 29.92 0.0
02 05:15 SW 8 10.00 Fair CLR 81.7 79.7 94% 92 29.92 0.0
02 04:55 S 8 10.00 Fair CLR 81.7 79.5 93% 91 29.92 0.0
02 04:35 S 7 10.00 Fair CLR 81.9 79.5 93% 92 29.92 0.0
02 04:15 SW 7 10.00 Fair CLR 82 79.3 92% 92 29.92 0.0
Date Time (cdt) Wind (mph) Vis. (mi.) Weather Sky Cond. Air Dwpt Max. Min. Relative Humidity Wind Chill (°F) Heat Index (°F) altimeter (in) sea level (mb) 1 hr 3 hr 6 hr
6 hour
Temperature (ºF) Pressure Precipitation (in)